createdAt,value
2023-02-04T08:32:37.282Z,95415.00
2023-02-04T08:32:48.592Z,95420.00
2023-02-04T08:33:00.168Z,95418.00
2023-02-04T08:33:12.542Z,95418.00
2023-02-04T08:33:23.850Z,95416.00
2023-02-04T08:33:35.439Z,95416.00
2023-02-04T08:33:46.769Z,95416.00
2023-02-04T08:33:58.365Z,95416.00
2023-02-04T08:34:09.715Z,95415.00
2023-02-04T08:34:21.303Z,95415.00
2023-02-04T08:34:32.621Z,95418.00
2023-02-04T08:34:44.205Z,95418.00
2023-02-04T08:34:55.528Z,95418.00
2023-02-04T08:35:07.128Z,95416.00
2023-02-04T08:35:18.478Z,95415.00
2023-02-04T08:35:30.051Z,95416.00
2023-02-04T08:35:41.402Z,95415.00
2023-02-04T08:35:53.006Z,95415.00
2023-02-04T08:36:04.393Z,95413.00
2023-02-04T08:36:15.983Z,95413.00
2023-02-04T08:36:27.338Z,95415.00
2023-02-04T08:36:38.908Z,95415.00
2023-02-04T08:36:50.222Z,95415.00
2023-02-04T08:37:01.801Z,95415.00
2023-02-04T08:37:13.101Z,95413.00
2023-02-04T08:37:24.686Z,95413.00
2023-02-04T08:37:36.040Z,95413.00
2023-02-04T08:37:47.742Z,95413.00
2023-02-04T08:37:59.130Z,95413.00
2023-02-04T08:38:10.720Z,95416.00
2023-02-04T08:38:22.202Z,95415.00
2023-02-04T08:38:33.961Z,95413.00
2023-02-04T08:38:45.352Z,95416.00
2023-02-04T08:38:56.946Z,95415.00
2023-02-04T08:39:08.271Z,95415.00
2023-02-04T08:39:19.853Z,95415.00
2023-02-04T08:39:31.179Z,95415.00
2023-02-04T08:39:42.950Z,95416.00
2023-02-04T08:39:54.277Z,95416.00
2023-02-04T08:40:05.860Z,95418.00
2023-02-04T08:40:18.451Z,95416.00
2023-02-04T08:40:28.301Z,95416.00
2023-02-04T08:40:39.895Z,95418.00
2023-02-04T08:40:51.213Z,95418.00
2023-02-04T08:41:02.792Z,95416.00
2023-02-04T08:41:14.252Z,95418.00
2023-02-04T08:41:25.826Z,95418.00
2023-02-04T08:41:37.158Z,95415.00
2023-02-04T08:41:48.747Z,95416.00
2023-02-04T08:42:00.097Z,95416.00
2023-02-04T08:42:11.669Z,95415.00
2023-02-04T08:42:23.023Z,95416.00
2023-02-04T08:42:34.605Z,95416.00
2023-02-04T08:42:45.958Z,95418.00
2023-02-04T08:42:57.580Z,95415.00
2023-02-04T08:43:08.901Z,95416.00
2023-02-04T08:43:20.499Z,95420.00
2023-02-04T08:43:31.832Z,95415.00
2023-02-04T08:43:43.431Z,95418.00
2023-02-04T08:43:54.732Z,95418.00
2023-02-04T08:44:06.320Z,95418.00
2023-02-04T08:44:17.702Z,95418.00
2023-02-04T08:44:29.238Z,95418.00
2023-02-04T08:44:40.550Z,95416.00
2023-02-04T08:44:52.122Z,95418.00
2023-02-04T08:45:03.448Z,95418.00
2023-02-04T08:45:15.048Z,95418.00
2023-02-04T08:45:26.352Z,95418.00
2023-02-04T08:45:37.936Z,95420.00
2023-02-04T08:45:49.250Z,95420.00
2023-02-04T08:46:00.849Z,95418.00
2023-02-04T08:46:12.201Z,95420.00
2023-02-04T08:46:23.842Z,95418.00
2023-02-04T08:46:35.223Z,95422.00
2023-02-04T08:46:46.855Z,95420.00
2023-02-04T08:46:58.315Z,95420.00
2023-02-04T08:47:09.925Z,95420.00
2023-02-04T08:47:21.253Z,95422.00
2023-02-04T08:47:32.852Z,95420.00
2023-02-04T08:47:44.195Z,95424.00
2023-02-04T08:47:55.751Z,95422.00
2023-02-04T08:48:07.105Z,95422.00
2023-02-04T08:48:18.691Z,95424.00
2023-02-04T08:48:30.042Z,95422.00
2023-02-04T08:48:41.624Z,95420.00
2023-02-04T08:48:52.963Z,95424.00
2023-02-04T08:49:04.534Z,95422.00
2023-02-04T08:49:15.862Z,95420.00
2023-02-04T08:49:27.438Z,95422.00
2023-02-04T08:49:38.772Z,95420.00
2023-02-04T08:49:50.353Z,95420.00
2023-02-04T08:50:01.677Z,95418.00
2023-02-04T08:50:13.244Z,95422.00
2023-02-04T08:50:24.575Z,95422.00
2023-02-04T08:50:38.282Z,95424.00
2023-02-04T08:50:48.160Z,95424.00
2023-02-04T08:50:59.727Z,95422.00
2023-02-04T08:51:11.035Z,95422.00
2023-02-04T08:51:22.636Z,95422.00
2023-02-04T08:51:33.974Z,95420.00
2023-02-04T08:51:45.560Z,95420.00
2023-02-04T08:51:56.890Z,95422.00
2023-02-04T08:52:08.468Z,95420.00
2023-02-04T08:52:19.825Z,95420.00
2023-02-04T08:52:31.416Z,95420.00
2023-02-04T08:52:42.728Z,95420.00
2023-02-04T08:52:54.321Z,95422.00
2023-02-04T08:53:05.651Z,95424.00
2023-02-04T08:53:17.252Z,95420.00
2023-02-04T08:53:28.590Z,95424.00
2023-02-04T08:53:40.153Z,95424.00
2023-02-04T08:53:51.471Z,95424.00
2023-02-04T08:54:03.076Z,95422.00
2023-02-04T08:54:14.418Z,95424.00
2023-02-04T08:54:25.986Z,95424.00
2023-02-04T08:54:37.296Z,95424.00
2023-02-04T08:54:48.874Z,95426.00
2023-02-04T08:55:00.195Z,95424.00
2023-02-04T08:55:11.805Z,95422.00
2023-02-04T08:55:23.145Z,95424.00
2023-02-04T08:55:34.714Z,95422.00
2023-02-04T08:55:46.038Z,95420.00
2023-02-04T08:55:57.639Z,95424.00
2023-02-04T08:56:08.992Z,95422.00
2023-02-04T08:56:20.609Z,95422.00
2023-02-04T08:56:31.913Z,95420.00
2023-02-04T08:56:43.503Z,95420.00
2023-02-04T08:56:54.819Z,95422.00
2023-02-04T08:57:06.396Z,95420.00
2023-02-04T08:57:17.728Z,95418.00
2023-02-04T08:57:29.319Z,95420.00
2023-02-04T08:57:40.666Z,95418.00
2023-02-04T08:57:52.254Z,95418.00
2023-02-04T08:58:03.589Z,95416.00
2023-02-04T08:58:15.187Z,95418.00
2023-02-04T08:58:26.562Z,95418.00
2023-02-04T08:58:38.156Z,95420.00
2023-02-04T08:58:49.470Z,95420.00
2023-02-04T08:59:01.051Z,95420.00
2023-02-04T08:59:12.373Z,95422.00
2023-02-04T08:59:23.955Z,95422.00
2023-02-04T08:59:35.276Z,95422.00
2023-02-04T08:59:46.869Z,95422.00
2023-02-04T08:59:58.220Z,95424.00
2023-02-04T09:00:09.801Z,95424.00
2023-02-04T09:00:21.114Z,95424.00
2023-02-04T09:00:32.998Z,95424.00
2023-02-04T09:00:44.746Z,95424.00
2023-02-04T09:00:56.111Z,95424.00
2023-02-04T09:01:07.752Z,95426.00
2023-02-04T09:01:19.139Z,95428.00
2023-02-04T09:01:30.724Z,95424.00
2023-02-04T09:01:42.043Z,95424.00
2023-02-04T09:01:53.636Z,95424.00
2023-02-04T09:02:05.017Z,95422.00
2023-02-04T09:02:16.658Z,95424.00
2023-02-04T09:02:28.075Z,95420.00
2023-02-04T09:02:39.630Z,95422.00
2023-02-04T09:02:50.990Z,95426.00
2023-02-04T09:03:02.549Z,95422.00
2023-02-04T09:03:13.902Z,95422.00
2023-02-04T09:03:25.486Z,95426.00
2023-02-04T09:03:36.830Z,95424.00
2023-02-04T09:03:48.435Z,95426.00
2023-02-04T09:03:59.772Z,95426.00
2023-02-04T09:04:11.384Z,95426.00
2023-02-04T09:04:22.689Z,95428.00
2023-02-04T09:04:34.263Z,95428.00
2023-02-04T09:04:45.592Z,95428.00
2023-02-04T09:04:57.165Z,95430.00
2023-02-04T09:05:08.495Z,95428.00
2023-02-04T09:05:20.076Z,95426.00
2023-02-04T09:05:31.397Z,95430.00
2023-02-04T09:05:42.958Z,95426.00
2023-02-04T09:05:54.303Z,95428.00
2023-02-04T09:06:05.896Z,95426.00
2023-02-04T09:06:17.212Z,95428.00
2023-02-04T09:06:28.800Z,95430.00
2023-02-04T09:06:40.131Z,95430.00
2023-02-04T09:06:51.746Z,95430.00
2023-02-04T09:07:03.082Z,95430.00
2023-02-04T09:07:14.676Z,95426.00
2023-02-04T09:07:25.994Z,95426.00
2023-02-04T09:07:37.566Z,95424.00
2023-02-04T09:07:48.873Z,95426.00
2023-02-04T09:08:00.475Z,95428.00
2023-02-04T09:08:11.800Z,95426.00
2023-02-04T09:08:23.381Z,95430.00
2023-02-04T09:08:34.745Z,95426.00
2023-02-04T09:08:46.305Z,95428.00
2023-02-04T09:08:57.625Z,95430.00
2023-02-04T09:09:09.220Z,95430.00
2023-02-04T09:09:22.792Z,95430.00
2023-02-04T09:09:32.501Z,95428.00
2023-02-04T09:09:44.111Z,95430.00
2023-02-04T09:09:55.439Z,95432.00
2023-02-04T09:10:07.031Z,95430.00
2023-02-04T09:10:18.348Z,95430.00
2023-02-04T09:10:30.243Z,95432.00
2023-02-04T09:10:41.950Z,95430.00
2023-02-04T09:10:53.281Z,95428.00
2023-02-04T09:11:04.875Z,95432.00
2023-02-04T09:11:16.183Z,95428.00
2023-02-04T09:11:27.763Z,95430.00
2023-02-04T09:11:39.109Z,95434.00
2023-02-04T09:11:50.692Z,95430.00
2023-02-04T09:12:02.020Z,95432.00
2023-02-04T09:12:13.593Z,95432.00
2023-02-04T09:12:24.898Z,95432.00
2023-02-04T09:12:36.483Z,95432.00
2023-02-04T09:12:47.796Z,95434.00
2023-02-04T09:12:59.356Z,95434.00
2023-02-04T09:13:10.683Z,95434.00
2023-02-04T09:13:22.290Z,95432.00
2023-02-04T09:13:33.633Z,95434.00
2023-02-04T09:13:45.217Z,95432.00
2023-02-04T09:13:56.545Z,95432.00
2023-02-04T09:14:08.142Z,95434.00
2023-02-04T09:14:19.471Z,95432.00
2023-02-04T09:14:31.050Z,95430.00
2023-02-04T09:14:42.393Z,95432.00
2023-02-04T09:14:53.976Z,95432.00
2023-02-04T09:15:05.306Z,95430.00
2023-02-04T09:15:16.865Z,95432.00
2023-02-04T09:15:28.191Z,95432.00
2023-02-04T09:15:39.762Z,95430.00
2023-02-04T09:15:52.557Z,95432.00
2023-02-04T09:16:02.730Z,95432.00
2023-02-04T09:16:14.519Z,95430.00
2023-02-04T09:16:25.861Z,95430.00
2023-02-04T09:16:37.446Z,95432.00
2023-02-04T09:16:48.855Z,95434.00
2023-02-04T09:17:00.437Z,95432.00
2023-02-04T09:17:11.776Z,95436.00
2023-02-04T09:17:23.364Z,95434.00
2023-02-04T09:17:34.672Z,95432.00
2023-02-04T09:17:46.278Z,95432.00
2023-02-04T09:17:57.615Z,95434.00
2023-02-04T09:18:09.186Z,95434.00
2023-02-04T09:18:20.531Z,95434.00
2023-02-04T09:18:32.110Z,95432.00
2023-02-04T09:18:43.452Z,95432.00
2023-02-04T09:18:55.055Z,95432.00
2023-02-04T09:19:06.376Z,95430.00
2023-02-04T09:19:17.971Z,95430.00
2023-02-04T09:19:29.285Z,95428.00
2023-02-04T09:19:40.856Z,95432.00
2023-02-04T09:19:52.164Z,95428.00
2023-02-04T09:20:03.724Z,95428.00
2023-02-04T09:20:15.040Z,95428.00
2023-02-04T09:20:26.612Z,95430.00
2023-02-04T09:20:37.919Z,95426.00
2023-02-04T09:20:49.533Z,95428.00
2023-02-04T09:21:00.844Z,95426.00
2023-02-04T09:21:12.434Z,95424.00
2023-02-04T09:21:23.779Z,95424.00
2023-02-04T09:21:35.340Z,95430.00
2023-02-04T09:21:46.654Z,95430.00
2023-02-04T09:21:58.262Z,95428.00
2023-02-04T09:22:09.590Z,95426.00
2023-02-04T09:22:21.189Z,95428.00
2023-02-04T09:22:32.538Z,95428.00
2023-02-04T09:22:44.115Z,95426.00
2023-02-04T09:22:55.416Z,95424.00
2023-02-04T09:23:07.010Z,95424.00
2023-02-04T09:23:18.343Z,95426.00
2023-02-04T09:23:29.935Z,95426.00
2023-02-04T09:23:41.253Z,95426.00
2023-02-04T09:23:52.828Z,95426.00
2023-02-04T09:24:04.132Z,95428.00
2023-02-04T09:24:15.701Z,95426.00
2023-02-04T09:24:27.017Z,95428.00
2023-02-04T09:24:38.587Z,95428.00
2023-02-04T09:24:49.902Z,95424.00
2023-02-04T09:25:01.516Z,95428.00
2023-02-04T09:25:12.856Z,95428.00
2023-02-04T09:25:24.437Z,95428.00
2023-02-04T09:25:35.741Z,95426.00
2023-02-04T09:25:47.322Z,95426.00
2023-02-04T09:25:58.663Z,95428.00
2023-02-04T09:26:10.227Z,95426.00
2023-02-04T09:26:21.545Z,95428.00
2023-02-04T09:26:33.136Z,95426.00
2023-02-04T09:26:44.539Z,95426.00
2023-02-04T09:26:56.110Z,95430.00
2023-02-04T09:27:07.426Z,95430.00
2023-02-04T09:27:19.013Z,95432.00
2023-02-04T09:27:30.326Z,95430.00
2023-02-04T09:27:41.919Z,95430.00
2023-02-04T09:27:53.272Z,95428.00
2023-02-04T09:28:04.873Z,95428.00
2023-02-04T09:28:16.184Z,95428.00
2023-02-04T09:28:27.822Z,95430.00
2023-02-04T09:28:39.144Z,95430.00
2023-02-04T09:28:50.737Z,95428.00
2023-02-04T09:29:02.076Z,95428.00
2023-02-04T09:29:13.656Z,95428.00
2023-02-04T09:29:25.003Z,95428.00
2023-02-04T09:29:36.576Z,95430.00
2023-02-04T09:29:47.892Z,95428.00
2023-02-04T09:29:59.464Z,95428.00
2023-02-04T09:30:10.770Z,95432.00
2023-02-04T09:30:22.343Z,95428.00
2023-02-04T09:30:34.067Z,95430.00
2023-02-04T09:30:45.919Z,95434.00
2023-02-04T09:30:57.303Z,95430.00
2023-02-04T09:31:08.912Z,95430.00
2023-02-04T09:31:20.332Z,95432.00
2023-02-04T09:31:32.023Z,95430.00
2023-02-04T09:31:43.415Z,95430.00
2023-02-04T09:31:55.049Z,95430.00
2023-02-04T09:32:06.460Z,95432.00
2023-02-04T09:32:18.009Z,95432.00
2023-02-04T09:32:29.315Z,95426.00
2023-02-04T09:32:40.885Z,95430.00
2023-02-04T09:32:52.212Z,95428.00
2023-02-04T09:33:03.811Z,95432.00
2023-02-04T09:33:15.116Z,95430.00
2023-02-04T09:33:26.698Z,95428.00
2023-02-04T09:33:38.019Z,95430.00
2023-02-04T09:33:49.611Z,95430.00
2023-02-04T09:34:00.934Z,95432.00
2023-02-04T09:34:12.498Z,95430.00
2023-02-04T09:34:23.828Z,95430.00
2023-02-04T09:34:35.425Z,95428.00
2023-02-04T09:34:46.738Z,95428.00
2023-02-04T09:34:58.327Z,95428.00
2023-02-04T09:35:09.621Z,95430.00
2023-02-04T09:35:21.222Z,95428.00
2023-02-04T09:35:32.553Z,95428.00
2023-02-04T09:35:44.149Z,95426.00
2023-02-04T09:35:55.513Z,95430.00
2023-02-04T09:36:09.710Z,95428.00
2023-02-04T09:36:19.093Z,95428.00
2023-02-04T09:36:30.695Z,95428.00
2023-02-04T09:36:41.999Z,95430.00
2023-02-04T09:36:53.579Z,95430.00
2023-02-04T09:37:04.916Z,95432.00
2023-02-04T09:37:16.500Z,95430.00
2023-02-04T09:37:27.798Z,95430.00
2023-02-04T09:37:39.364Z,95430.00
2023-02-04T09:37:50.714Z,95432.00
2023-02-04T09:38:02.296Z,95430.00
2023-02-04T09:38:13.614Z,95428.00
2023-02-04T09:38:25.202Z,95434.00
2023-02-04T09:38:36.534Z,95432.00
2023-02-04T09:38:48.117Z,95432.00
2023-02-04T09:38:59.435Z,95430.00
2023-02-04T09:39:11.018Z,95432.00
2023-02-04T09:39:22.348Z,95430.00
2023-02-04T09:39:33.929Z,95430.00
2023-02-04T09:39:45.270Z,95430.00
2023-02-04T09:39:56.850Z,95430.00
2023-02-04T09:40:08.194Z,95430.00
2023-02-04T09:40:19.765Z,95428.00
2023-02-04T09:40:31.468Z,95426.00
2023-02-04T09:40:43.243Z,95428.00
2023-02-04T09:40:54.574Z,95430.00
2023-02-04T09:41:06.193Z,95428.00
2023-02-04T09:41:17.547Z,95428.00
2023-02-04T09:41:29.134Z,95424.00
2023-02-04T09:41:40.517Z,95426.00
2023-02-04T09:41:52.064Z,95426.00
2023-02-04T09:42:03.375Z,95426.00
2023-02-04T09:42:14.952Z,95426.00
2023-02-04T09:42:26.281Z,95426.00
2023-02-04T09:42:37.856Z,95428.00
2023-02-04T09:42:49.200Z,95426.00
2023-02-04T09:43:00.792Z,95428.00
2023-02-04T09:43:12.136Z,95426.00
2023-02-04T09:43:23.722Z,95426.00
2023-02-04T09:43:35.043Z,95424.00
2023-02-04T09:43:46.649Z,95426.00
2023-02-04T09:43:57.975Z,95426.00
2023-02-04T09:44:09.568Z,95426.00
2023-02-04T09:44:20.913Z,95428.00
2023-02-04T09:44:32.483Z,95424.00
2023-02-04T09:44:43.812Z,95426.00
2023-02-04T09:44:55.394Z,95426.00
2023-02-04T09:45:06.736Z,95432.00
2023-02-04T09:45:18.305Z,95430.00
2023-02-04T09:45:29.682Z,95432.00
2023-02-04T09:45:41.263Z,95430.00
2023-02-04T09:45:52.614Z,95430.00
2023-02-04T09:46:04.257Z,95430.00
2023-02-04T09:46:15.750Z,95430.00
2023-02-04T09:46:27.274Z,95430.00
2023-02-04T09:46:38.620Z,95430.00
2023-02-04T09:46:50.236Z,95430.00
2023-02-04T09:47:01.630Z,95432.00
2023-02-04T09:47:13.182Z,95430.00
2023-02-04T09:47:24.497Z,95430.00
2023-02-04T09:47:36.110Z,95432.00
2023-02-04T09:47:47.420Z,95432.00
2023-02-04T09:47:59.005Z,95432.00
2023-02-04T09:48:10.397Z,95432.00
2023-02-04T09:48:21.967Z,95428.00
2023-02-04T09:48:33.330Z,95434.00
2023-02-04T09:48:44.900Z,95432.00
2023-02-04T09:48:56.230Z,95430.00
2023-02-04T09:49:07.817Z,95430.00
2023-02-04T09:49:19.162Z,95430.00
2023-02-04T09:49:30.742Z,95432.00
2023-02-04T09:49:42.054Z,95434.00
2023-02-04T09:49:53.621Z,95432.00
2023-02-04T09:50:04.946Z,95432.00
2023-02-04T09:50:16.547Z,95434.00
2023-02-04T09:50:27.861Z,95436.00
2023-02-04T09:50:39.456Z,95436.00
2023-02-04T09:50:50.802Z,95434.00
2023-02-04T09:51:02.373Z,95434.00
2023-02-04T09:51:13.710Z,95436.00
2023-02-04T09:51:25.279Z,95436.00
2023-02-04T09:51:36.588Z,95436.00
2023-02-04T09:51:48.175Z,95436.00
2023-02-04T09:51:59.499Z,95438.00
2023-02-04T09:52:11.097Z,95436.00
2023-02-04T09:52:22.409Z,95438.00
2023-02-04T09:52:33.998Z,95438.00
2023-02-04T09:52:45.322Z,95438.00
2023-02-04T09:52:56.909Z,95440.00
2023-02-04T09:53:08.232Z,95436.00
2023-02-04T09:53:20.189Z,95440.00
2023-02-04T09:53:31.572Z,95440.00
2023-02-04T09:53:43.173Z,95442.00
2023-02-04T09:53:54.479Z,95442.00
2023-02-04T09:54:06.073Z,95440.00
2023-02-04T09:54:17.423Z,95440.00
2023-02-04T09:54:29.001Z,95440.00
2023-02-04T09:54:40.348Z,95442.00
2023-02-04T09:54:51.931Z,95442.00
2023-02-04T09:55:03.262Z,95442.00
2023-02-04T09:55:14.845Z,95442.00
2023-02-04T09:55:26.156Z,95440.00
2023-02-04T09:55:37.728Z,95442.00
2023-02-04T09:55:49.051Z,95440.00
2023-02-04T09:56:00.654Z,95442.00
2023-02-04T09:56:11.966Z,95442.00
2023-02-04T09:56:23.537Z,95440.00
2023-02-04T09:56:34.860Z,95440.00
2023-02-04T09:56:46.448Z,95438.00
2023-02-04T09:56:57.764Z,95442.00
2023-02-04T09:57:09.326Z,95442.00
2023-02-04T09:57:20.651Z,95442.00
2023-02-04T09:57:32.242Z,95442.00
2023-02-04T09:57:43.553Z,95442.00
2023-02-04T09:57:55.118Z,95442.00
2023-02-04T09:58:06.431Z,95442.00
2023-02-04T09:58:18.012Z,95442.00
2023-02-04T09:58:29.318Z,95442.00
2023-02-04T09:58:40.916Z,95442.00
2023-02-04T09:58:52.267Z,95442.00
2023-02-04T09:59:03.855Z,95440.00
2023-02-04T09:59:15.195Z,95442.00
2023-02-04T09:59:26.763Z,95438.00
2023-02-04T09:59:38.074Z,95442.00
2023-02-04T09:59:49.657Z,95442.00
2023-02-04T10:00:01.009Z,95442.00
2023-02-04T10:00:12.589Z,95438.00
2023-02-04T10:00:23.917Z,95438.00
2023-02-04T10:00:35.504Z,95440.00
2023-02-04T10:00:46.932Z,95440.00
2023-02-04T10:00:58.577Z,95440.00
2023-02-04T10:01:09.943Z,95440.00
2023-02-04T10:01:21.655Z,95442.00
2023-02-04T10:01:33.012Z,95438.00
2023-02-04T10:01:44.593Z,95440.00
2023-02-04T10:01:55.938Z,95440.00
2023-02-04T10:02:07.518Z,95440.00
2023-02-04T10:02:18.842Z,95444.00
2023-02-04T10:02:30.432Z,95442.00
2023-02-04T10:02:41.752Z,95442.00
2023-02-04T10:02:53.377Z,95440.00
2023-02-04T10:03:04.686Z,95440.00
2023-02-04T10:03:16.314Z,95446.00
2023-02-04T10:03:27.733Z,95440.00
2023-02-04T10:03:39.347Z,95442.00
2023-02-04T10:03:50.739Z,95444.00
2023-02-04T10:04:02.396Z,95444.00
2023-02-04T10:04:13.786Z,95442.00
2023-02-04T10:04:25.368Z,95444.00
2023-02-04T10:04:36.688Z,95446.00
2023-02-04T10:04:48.284Z,95444.00
2023-02-04T10:04:59.587Z,95446.00
2023-02-04T10:05:11.168Z,95442.00
2023-02-04T10:05:22.844Z,95446.00
2023-02-04T10:05:34.409Z,95446.00
2023-02-04T10:05:45.701Z,95446.00
2023-02-04T10:05:57.275Z,95446.00
2023-02-04T10:06:08.600Z,95444.00
2023-02-04T10:06:20.201Z,95442.00
2023-02-04T10:06:31.516Z,95446.00
2023-02-04T10:06:43.086Z,95444.00
2023-02-04T10:06:54.405Z,95444.00
2023-02-04T10:07:05.974Z,95444.00
2023-02-04T10:07:17.294Z,95442.00
2023-02-04T10:07:28.898Z,95444.00
2023-02-04T10:07:40.213Z,95444.00
2023-02-04T10:07:51.769Z,95444.00
2023-02-04T10:08:03.107Z,95444.00
2023-02-04T10:08:14.683Z,95442.00
2023-02-04T10:08:26.040Z,95444.00
2023-02-04T10:08:37.605Z,95444.00
2023-02-04T10:08:48.963Z,95442.00
2023-02-04T10:09:00.532Z,95444.00
2023-02-04T10:09:11.845Z,95442.00
2023-02-04T10:09:23.415Z,95442.00
2023-02-04T10:09:34.735Z,95446.00
2023-02-04T10:09:46.336Z,95440.00
2023-02-04T10:09:57.674Z,95444.00
2023-02-04T10:10:09.277Z,95442.00
2023-02-04T10:10:20.713Z,95444.00
2023-02-04T10:10:32.539Z,95440.00
2023-02-04T10:10:43.996Z,95442.00
2023-02-04T10:10:57.796Z,95438.00
2023-02-04T10:11:07.190Z,95440.00
2023-02-04T10:11:18.783Z,95442.00
2023-02-04T10:11:30.101Z,95442.00
2023-02-04T10:11:41.678Z,95440.00
2023-02-04T10:11:53.017Z,95440.00
2023-02-04T10:12:04.632Z,95442.00
2023-02-04T10:12:15.952Z,95446.00
2023-02-04T10:12:27.532Z,95444.00
2023-02-04T10:12:38.879Z,95442.00
2023-02-04T10:12:50.493Z,95442.00
2023-02-04T10:13:01.838Z,95448.00
2023-02-04T10:13:13.442Z,95448.00
2023-02-04T10:13:24.749Z,95446.00
2023-02-04T10:13:36.334Z,95446.00
2023-02-04T10:13:47.662Z,95444.00
2023-02-04T10:13:59.258Z,95444.00
2023-02-04T10:14:10.570Z,95446.00
2023-02-04T10:14:22.148Z,95448.00
2023-02-04T10:14:33.461Z,95446.00
2023-02-04T10:14:45.034Z,95446.00
2023-02-04T10:14:56.367Z,95446.00
2023-02-04T10:15:07.965Z,95446.00
2023-02-04T10:15:19.318Z,95444.00
2023-02-04T10:15:30.901Z,95444.00
2023-02-04T10:15:42.223Z,95446.00
2023-02-04T10:15:53.833Z,95444.00
2023-02-04T10:16:05.155Z,95444.00
2023-02-04T10:16:16.833Z,95446.00
2023-02-04T10:16:28.151Z,95446.00
2023-02-04T10:16:39.759Z,95446.00
2023-02-04T10:16:51.102Z,95448.00
2023-02-04T10:17:02.749Z,95444.00
2023-02-04T10:17:14.103Z,95444.00
2023-02-04T10:17:25.694Z,95444.00
2023-02-04T10:17:37.015Z,95446.00
2023-02-04T10:17:48.615Z,95444.00
2023-02-04T10:17:59.971Z,95444.00
2023-02-04T10:18:11.558Z,95444.00
2023-02-04T10:18:22.903Z,95444.00
2023-02-04T10:18:34.487Z,95444.00
2023-02-04T10:18:45.864Z,95444.00
2023-02-04T10:18:57.435Z,95442.00
2023-02-04T10:19:08.747Z,95442.00
2023-02-04T10:19:20.346Z,95444.00
2023-02-04T10:19:31.689Z,95444.00
2023-02-04T10:19:43.279Z,95444.00
2023-02-04T10:19:54.601Z,95442.00
2023-02-04T10:20:06.178Z,95442.00
2023-02-04T10:20:17.502Z,95442.00
2023-02-04T10:20:29.130Z,95440.00
2023-02-04T10:20:40.452Z,95444.00
2023-02-04T10:20:52.048Z,95442.00
2023-02-04T10:21:03.364Z,95442.00
2023-02-04T10:21:14.969Z,95442.00
2023-02-04T10:21:26.298Z,95442.00
2023-02-04T10:21:37.884Z,95442.00
2023-02-04T10:21:49.219Z,95442.00
2023-02-04T10:22:00.800Z,95440.00
2023-02-04T10:22:12.135Z,95442.00
2023-02-04T10:22:23.856Z,95442.00
2023-02-04T10:22:35.146Z,95442.00
2023-02-04T10:22:46.708Z,95442.00
2023-02-04T10:22:58.042Z,95444.00
2023-02-04T10:23:11.317Z,95444.00
2023-02-04T10:23:21.584Z,95442.00
2023-02-04T10:23:33.153Z,95442.00
2023-02-04T10:23:44.497Z,95442.00
2023-02-04T10:23:56.092Z,95444.00
2023-02-04T10:24:07.414Z,95444.00
2023-02-04T10:24:19.036Z,95442.00
2023-02-04T10:24:30.354Z,95442.00
2023-02-04T10:24:41.919Z,95448.00
2023-02-04T10:24:53.247Z,95446.00
2023-02-04T10:25:04.827Z,95448.00
2023-02-04T10:25:16.142Z,95446.00
2023-02-04T10:25:27.712Z,95448.00
2023-02-04T10:25:39.029Z,95448.00
2023-02-04T10:25:50.598Z,95446.00
2023-02-04T10:26:01.913Z,95446.00
2023-02-04T10:26:13.476Z,95450.00
2023-02-04T10:26:24.802Z,95446.00
2023-02-04T10:26:36.369Z,95448.00
2023-02-04T10:26:47.678Z,95448.00
2023-02-04T10:26:59.256Z,95446.00
2023-02-04T10:27:10.592Z,95448.00
2023-02-04T10:27:22.181Z,95448.00
2023-02-04T10:27:33.524Z,95448.00
2023-02-04T10:27:45.126Z,95446.00
2023-02-04T10:27:56.451Z,95444.00
2023-02-04T10:28:08.082Z,95442.00
2023-02-04T10:28:19.459Z,95444.00
2023-02-04T10:28:31.199Z,95444.00
2023-02-04T10:28:42.489Z,95444.00
2023-02-04T10:28:54.066Z,95444.00
2023-02-04T10:29:05.414Z,95444.00
2023-02-04T10:29:16.983Z,95440.00
2023-02-04T10:29:28.302Z,95444.00
2023-02-04T10:29:39.889Z,95442.00
2023-02-04T10:29:51.236Z,95442.00
2023-02-04T10:30:02.798Z,95444.00
2023-02-04T10:30:14.144Z,95444.00
2023-02-04T10:30:25.766Z,95444.00
2023-02-04T10:30:37.140Z,95442.00
2023-02-04T10:30:48.816Z,95442.00
2023-02-04T10:31:00.165Z,95442.00
2023-02-04T10:31:11.947Z,95438.00
2023-02-04T10:31:23.346Z,95440.00
2023-02-04T10:31:35.095Z,95440.00
2023-02-04T10:31:46.714Z,95442.00
2023-02-04T10:31:58.375Z,95442.00
2023-02-04T10:32:09.663Z,95442.00
2023-02-04T10:32:21.264Z,95440.00
2023-02-04T10:32:32.704Z,95438.00
2023-02-04T10:32:44.270Z,95442.00
2023-02-04T10:32:55.600Z,95442.00
2023-02-04T10:33:07.179Z,95440.00
2023-02-04T10:33:18.501Z,95440.00
2023-02-04T10:33:30.109Z,95442.00
2023-02-04T10:33:41.402Z,95440.00
2023-02-04T10:33:53.006Z,95440.00
2023-02-04T10:34:04.333Z,95440.00
2023-02-04T10:34:18.419Z,95442.00
2023-02-04T10:34:28.025Z,95440.00
2023-02-04T10:34:39.646Z,95440.00
2023-02-04T10:34:50.947Z,95440.00
2023-02-04T10:35:02.551Z,95440.00
2023-02-04T10:35:13.855Z,95440.00
2023-02-04T10:35:25.426Z,95444.00
2023-02-04T10:35:36.755Z,95446.00
2023-02-04T10:35:48.338Z,95444.00
2023-02-04T10:35:59.656Z,95444.00
2023-02-04T10:36:11.258Z,95444.00
2023-02-04T10:36:22.583Z,95444.00
2023-02-04T10:36:34.161Z,95442.00
2023-02-04T10:36:45.485Z,95444.00
2023-02-04T10:36:57.071Z,95444.00
2023-02-04T10:37:08.390Z,95444.00
2023-02-04T10:37:19.978Z,95444.00
2023-02-04T10:37:31.303Z,95444.00
2023-02-04T10:37:42.921Z,95444.00
2023-02-04T10:37:54.242Z,95444.00
2023-02-04T10:38:05.852Z,95444.00
2023-02-04T10:38:17.173Z,95446.00
2023-02-04T10:38:28.755Z,95446.00
2023-02-04T10:38:40.065Z,95446.00
2023-02-04T10:38:51.687Z,95444.00
2023-02-04T10:39:03.003Z,95446.00
2023-02-04T10:39:14.583Z,95446.00
2023-02-04T10:39:25.915Z,95448.00
2023-02-04T10:39:37.488Z,95446.00
2023-02-04T10:39:48.863Z,95448.00
2023-02-04T10:40:00.440Z,95448.00
